createdAt,value
2018-03-30T00:00:49.045Z,69.80
2018-03-30T00:03:19.453Z,70.20
2018-03-30T00:05:49.578Z,70.40
2018-03-30T00:08:19.040Z,70.40
2018-03-30T00:10:53.218Z,70.40
2018-03-30T00:13:22.762Z,70.10
2018-03-30T00:15:52.106Z,70.00
2018-03-30T00:18:21.894Z,70.00
2018-03-30T00:20:52.218Z,70.80
2018-03-30T00:23:22.343Z,70.70
2018-03-30T00:28:23.036Z,70.50
2018-03-30T00:30:57.082Z,71.00
2018-03-30T00:33:27.391Z,71.60
2018-03-30T00:36:01.150Z,71.70
2018-03-30T00:38:31.310Z,71.10
2018-03-30T00:41:04.409Z,70.40
2018-03-30T00:43:34.538Z,69.80
2018-03-30T00:48:36.812Z,69.00
2018-03-30T00:51:18.681Z,69.20
2018-03-30T00:53:49.775Z,69.80
2018-03-30T00:56:20.552Z,70.20
2018-03-30T00:58:50.959Z,70.50
2018-03-30T01:01:20.935Z,70.80
2018-03-30T01:03:50.850Z,71.30
2018-03-30T01:08:51.636Z,71.50
2018-03-30T01:11:21.666Z,71.90
2018-03-30T01:13:52.308Z,72.20
2018-03-30T01:16:22.110Z,72.70
2018-03-30T01:18:52.144Z,73.10
2018-03-30T01:21:23.888Z,73.20
2018-03-30T01:23:55.231Z,73.30
2018-03-30T01:26:26.226Z,73.30
2018-03-30T01:28:56.326Z,73.80
2018-03-30T01:31:28.158Z,73.10
2018-03-30T01:33:58.073Z,74.30
2018-03-30T01:36:34.259Z,74.60
2018-03-30T01:39:05.099Z,74.50
2018-03-30T01:41:36.073Z,74.60
2018-03-30T01:44:06.856Z,74.90
2018-03-30T01:46:37.125Z,74.90
2018-03-30T01:49:07.520Z,74.70
2018-03-30T01:51:41.243Z,74.80
2018-03-30T01:54:11.450Z,74.60
2018-03-30T01:56:42.900Z,74.70
2018-03-30T01:59:12.811Z,74.40
2018-03-30T02:01:45.007Z,74.50
2018-03-30T02:04:15.900Z,75.20
2018-03-30T02:06:48.953Z,74.10
2018-03-30T02:09:19.029Z,73.60
2018-03-30T02:11:52.554Z,73.70
2018-03-30T02:14:24.116Z,72.60
2018-03-30T02:16:54.964Z,72.30
2018-03-30T02:19:25.058Z,70.90
2018-03-30T02:21:57.021Z,70.10
2018-03-30T02:24:28.632Z,69.20
2018-03-30T02:27:00.554Z,68.80
2018-03-30T02:29:30.757Z,68.40
2018-03-30T02:32:03.545Z,67.80
2018-03-30T02:37:05.666Z,67.90
2018-03-30T02:39:36.387Z,67.20
2018-03-30T02:42:09.981Z,67.20
2018-03-30T02:44:39.941Z,66.70
2018-03-30T02:47:22.558Z,66.70
2018-03-30T02:49:53.370Z,66.60
2018-03-30T02:52:23.987Z,66.60
2018-03-30T02:54:53.848Z,66.80
2018-03-30T02:57:24.272Z,66.40
2018-03-30T02:59:54.575Z,66.30
2018-03-30T03:02:24.564Z,66.70
2018-03-30T03:04:54.795Z,67.20
2018-03-30T03:07:25.295Z,68.80
2018-03-30T03:09:55.615Z,68.50
2018-03-30T03:12:25.746Z,69.30
2018-03-30T03:14:56.424Z,69.90
2018-03-30T03:17:27.875Z,70.60
2018-03-30T03:19:59.762Z,72.30
2018-03-30T03:25:00.895Z,72.00
2018-03-30T03:27:32.091Z,72.10
2018-03-30T03:30:02.638Z,72.40
2018-03-30T03:32:35.210Z,73.40
2018-03-30T03:35:05.928Z,74.80
2018-03-30T03:37:38.996Z,74.80
2018-03-30T03:40:10.038Z,75.60
2018-03-30T03:42:40.559Z,75.30
2018-03-30T03:45:11.722Z,75.90
2018-03-30T03:47:43.342Z,75.10
2018-03-30T03:50:14.001Z,74.50
2018-03-30T03:52:46.073Z,74.80
2018-03-30T03:55:17.023Z,73.80
2018-03-30T03:57:49.461Z,73.40
2018-03-30T04:00:20.500Z,73.40
2018-03-30T04:02:52.136Z,73.00
2018-03-30T04:05:22.149Z,72.90
2018-03-30T04:07:55.714Z,73.10
2018-03-30T04:10:25.787Z,73.70
2018-03-30T04:12:59.205Z,74.10
2018-03-30T04:15:30.025Z,75.80
2018-03-30T04:18:00.787Z,76.50
2018-03-30T04:20:30.982Z,75.80
2018-03-30T04:23:05.041Z,76.20
2018-03-30T04:25:35.331Z,75.30
2018-03-30T04:28:09.449Z,75.60
2018-03-30T04:30:39.707Z,75.10
2018-03-30T04:33:12.884Z,75.30
2018-03-30T04:35:43.512Z,75.60
2018-03-30T04:38:14.290Z,75.20
2018-03-30T04:40:45.245Z,75.90
2018-03-30T04:43:16.192Z,75.70
2018-03-30T04:48:17.408Z,76.20
2018-03-30T04:50:47.236Z,76.40
2018-03-30T04:53:20.648Z,76.80
2018-03-30T04:55:50.747Z,77.20
2018-03-30T04:58:21.851Z,78.90
2018-03-30T05:00:51.851Z,78.30
2018-03-30T05:03:25.710Z,78.50
2018-03-30T05:05:55.917Z,78.80
2018-03-30T05:08:27.225Z,78.20
2018-03-30T05:10:57.735Z,79.00
2018-03-30T05:13:29.126Z,79.10
2018-03-30T05:15:59.124Z,79.20
2018-03-30T05:18:31.141Z,79.20
2018-03-30T05:21:01.717Z,79.50
2018-03-30T05:23:33.951Z,79.60
2018-03-30T05:26:03.975Z,79.90
2018-03-30T05:31:06.148Z,80.30
2018-03-30T05:33:39.461Z,79.40
2018-03-30T05:36:10.119Z,79.90
2018-03-30T05:38:41.606Z,79.10
2018-03-30T05:41:11.742Z,78.80
2018-03-30T05:43:54.158Z,79.10
2018-03-30T05:46:24.934Z,79.10
2018-03-30T05:48:55.442Z,79.10
2018-03-30T05:51:26.399Z,79.80
2018-03-30T05:53:56.801Z,79.00
2018-03-30T05:56:27.558Z,80.20
2018-03-30T05:58:57.632Z,78.70
2018-03-30T06:03:59.094Z,79.40
2018-03-30T06:06:29.295Z,79.50
2018-03-30T06:09:11.528Z,79.50
2018-03-30T06:11:41.613Z,79.50
2018-03-30T06:14:12.021Z,79.70
2018-03-30T06:19:14.115Z,79.60
2018-03-30T06:21:44.190Z,79.50
2018-03-30T06:24:15.039Z,79.10
2018-03-30T06:26:45.061Z,78.10
2018-03-30T06:29:16.071Z,77.20
2018-03-30T06:31:46.015Z,77.30
2018-03-30T06:34:19.490Z,77.80
2018-03-30T06:36:50.347Z,77.60
2018-03-30T06:39:20.594Z,79.10
2018-03-30T06:41:50.270Z,77.30
2018-03-30T06:44:23.323Z,78.00
2018-03-30T06:46:53.576Z,76.90
2018-03-30T06:49:24.491Z,76.70
2018-03-30T06:51:54.171Z,76.70
2018-03-30T06:54:26.576Z,76.90
2018-03-30T06:56:56.546Z,77.00
2018-03-30T06:59:28.938Z,76.70
2018-03-30T07:01:58.772Z,76.10
2018-03-30T07:04:31.498Z,77.20
2018-03-30T07:07:01.252Z,76.00
2018-03-30T07:09:34.204Z,76.20
2018-03-30T07:12:04.196Z,76.30
2018-03-30T07:14:37.206Z,76.30
2018-03-30T07:17:06.874Z,76.30
2018-03-30T07:19:40.866Z,76.60
2018-03-30T07:22:10.434Z,75.90
2018-03-30T07:24:41.494Z,75.60
2018-03-30T07:27:11.158Z,75.10
2018-03-30T07:29:47.260Z,72.30
2018-03-30T07:32:17.222Z,69.60
2018-03-30T07:34:48.630Z,67.10
2018-03-30T07:37:18.591Z,64.00
2018-03-30T07:39:51.333Z,64.20
2018-03-30T07:42:21.042Z,62.40
2018-03-30T07:44:54.720Z,62.20
2018-03-30T07:47:24.410Z,61.70
2018-03-30T07:50:06.391Z,58.70
2018-03-30T07:52:36.862Z,59.00
2018-03-30T07:55:06.839Z,59.40
2018-03-30T07:57:38.288Z,57.40
2018-03-30T08:00:08.950Z,54.20
2018-03-30T08:02:38.672Z,53.70
2018-03-30T08:05:08.353Z,52.70
2018-03-30T08:07:38.347Z,51.90
2018-03-30T08:10:20.662Z,49.70
2018-03-30T08:12:50.400Z,48.70
2018-03-30T08:15:19.943Z,43.30
2018-03-30T08:17:49.405Z,45.00
2018-03-30T08:20:19.399Z,45.70
2018-03-30T08:22:48.805Z,45.80
2018-03-30T08:38:24.338Z,40.60
2018-03-30T08:40:53.926Z,39.20
2018-03-30T08:43:25.394Z,40.00
2018-03-30T08:45:55.206Z,40.20
2018-03-30T08:48:27.952Z,40.20
2018-03-30T08:50:58.613Z,39.60
2018-03-30T08:53:30.706Z,42.20
2018-03-30T08:56:00.162Z,43.40
2018-03-30T08:58:34.929Z,43.20
2018-03-30T09:01:04.546Z,41.30
2018-03-30T09:03:36.399Z,41.60
2018-03-30T09:06:07.042Z,41.40
2018-03-30T09:08:39.467Z,43.90
2018-03-30T09:11:10.104Z,46.40
2018-03-30T09:13:42.045Z,47.90
2018-03-30T09:16:11.802Z,47.50
2018-03-30T09:18:43.755Z,46.60
2018-03-30T09:21:13.211Z,46.20
2018-03-30T09:23:46.333Z,48.30
2018-03-30T09:26:16.787Z,51.30
2018-03-30T09:28:48.467Z,50.30
2018-03-30T09:31:18.720Z,51.20
2018-03-30T09:33:53.629Z,53.00
2018-03-30T09:36:23.470Z,53.40
2018-03-30T09:38:57.940Z,53.40
2018-03-30T09:41:28.508Z,52.40
2018-03-30T09:44:01.278Z,52.20
2018-03-30T09:46:31.383Z,50.60
2018-03-30T09:49:04.808Z,46.40
2018-03-30T09:51:34.254Z,47.80
2018-03-30T09:54:09.499Z,48.40
2018-03-30T09:56:39.008Z,50.30
2018-03-30T09:59:12.159Z,49.40
2018-03-30T10:04:17.366Z,49.70
2018-03-30T10:06:46.819Z,50.30
2018-03-30T10:09:17.273Z,48.50
2018-03-30T10:11:46.793Z,47.70
2018-03-30T10:14:19.729Z,49.60
2018-03-30T10:16:50.188Z,47.70
2018-03-30T10:19:22.986Z,47.30
2018-03-30T10:21:53.615Z,46.80
2018-03-30T10:24:24.441Z,48.00
2018-03-30T10:26:53.763Z,48.90
2018-03-30T10:29:26.491Z,49.90
2018-03-30T10:31:57.041Z,50.70
2018-03-30T10:34:29.980Z,50.50
2018-03-30T10:36:59.406Z,49.00
2018-03-30T10:39:31.877Z,51.90
2018-03-30T10:42:01.465Z,49.70
2018-03-30T10:44:35.573Z,50.90
2018-03-30T10:47:05.732Z,50.70
2018-03-30T10:49:40.243Z,52.70
2018-03-30T10:52:10.497Z,51.40
2018-03-30T10:54:40.492Z,52.30
2018-03-30T10:57:09.933Z,52.50
2018-03-30T10:59:41.358Z,51.10
2018-03-30T11:02:10.923Z,51.50
2018-03-30T11:04:52.696Z,49.30
2018-03-30T11:07:23.267Z,49.30
2018-03-30T11:09:53.861Z,49.70
2018-03-30T11:12:24.123Z,48.70
2018-03-30T11:14:53.580Z,47.30
2018-03-30T11:17:23.265Z,47.50
2018-03-30T11:19:54.371Z,48.00
2018-03-30T11:22:25.359Z,48.10
2018-03-30T11:24:56.695Z,47.50
2018-03-30T11:27:26.431Z,47.70
2018-03-30T11:29:58.796Z,47.00
2018-03-30T11:32:28.688Z,47.80
2018-03-30T11:35:10.918Z,48.80
2018-03-30T11:37:40.859Z,49.10
2018-03-30T11:40:10.534Z,47.90
2018-03-30T11:42:39.925Z,47.80
2018-03-30T11:45:09.432Z,49.60
2018-03-30T11:47:39.163Z,48.90
2018-03-30T11:50:20.968Z,48.30
2018-03-30T11:52:51.744Z,49.50
2018-03-30T12:08:34.154Z,49.50
2018-03-30T12:11:03.682Z,50.00
2018-03-30T12:13:34.397Z,51.00
2018-03-30T12:16:04.055Z,51.30
2018-03-30T12:18:33.828Z,50.60
2018-03-30T12:21:04.014Z,49.80
2018-03-30T12:23:33.399Z,49.70
2018-03-30T12:26:03.606Z,50.40
2018-03-30T12:28:34.440Z,52.30
2018-03-30T12:31:03.975Z,50.60
2018-03-30T12:33:33.688Z,51.70
2018-03-30T12:36:03.825Z,50.50
2018-03-30T12:38:34.237Z,50.60
2018-03-30T12:41:03.613Z,51.40
2018-03-30T12:43:45.810Z,50.60
2018-03-30T12:46:15.962Z,51.20
2018-03-30T12:48:45.746Z,50.40
2018-03-30T12:51:15.516Z,50.40
2018-03-30T13:06:58.702Z,49.50
2018-03-30T13:09:28.406Z,49.40
2018-03-30T13:11:58.829Z,48.90
2018-03-30T13:14:28.631Z,49.60
2018-03-30T13:16:58.422Z,50.70
2018-03-30T13:19:28.618Z,49.30
2018-03-30T13:22:01.584Z,49.90
2018-03-30T13:24:31.038Z,50.40
2018-03-30T13:27:04.235Z,50.70
2018-03-30T13:29:34.516Z,50.20
2018-03-30T13:32:07.600Z,50.10
2018-03-30T13:34:37.119Z,49.40
2018-03-30T13:39:39.381Z,49.80
2018-03-30T13:42:13.114Z,47.70
2018-03-30T13:44:43.946Z,48.10
2018-03-30T13:47:17.192Z,48.70
2018-03-30T13:49:46.847Z,49.30
2018-03-30T13:52:18.884Z,48.80
2018-03-30T13:54:48.265Z,49.30
2018-03-30T13:59:50.485Z,47.00
2018-03-30T14:02:25.323Z,47.10
2018-03-30T14:04:54.879Z,47.70
2018-03-30T14:07:26.806Z,47.80
2018-03-30T14:09:57.153Z,48.50
2018-03-30T14:12:28.219Z,46.60
2018-03-30T14:14:58.938Z,48.50
2018-03-30T14:17:31.363Z,47.60
2018-03-30T14:20:00.858Z,48.00
2018-03-30T14:22:33.024Z,48.00
2018-03-30T14:25:03.727Z,46.80
2018-03-30T14:27:37.261Z,47.20
2018-03-30T14:30:07.174Z,46.40
2018-03-30T14:32:38.455Z,47.70
2018-03-30T14:35:08.386Z,47.30
2018-03-30T14:37:40.757Z,48.60
2018-03-30T14:40:10.509Z,48.00
2018-03-30T14:42:44.354Z,48.20
2018-03-30T14:45:15.042Z,48.70
2018-03-30T14:47:47.803Z,47.90
2018-03-30T14:50:18.861Z,48.50
2018-03-30T14:52:49.035Z,48.60
2018-03-30T14:55:19.403Z,49.00
2018-03-30T14:57:52.125Z,48.80
2018-03-30T15:00:22.100Z,49.20
2018-03-30T15:02:55.507Z,49.00
2018-03-30T15:05:25.045Z,49.10
2018-03-30T15:07:56.912Z,49.90
2018-03-30T15:10:27.202Z,49.40
2018-03-30T15:12:59.899Z,48.00
2018-03-30T15:15:29.808Z,47.50
2018-03-30T15:18:03.528Z,47.20
2018-03-30T15:20:34.287Z,46.70
2018-03-30T15:23:09.228Z,47.50
2018-03-30T15:25:39.646Z,47.20
2018-03-30T15:28:09.390Z,47.90
2018-03-30T15:30:40.339Z,48.20
2018-03-30T15:33:22.067Z,48.10
2018-03-30T15:35:52.716Z,49.20
2018-03-30T15:38:23.830Z,48.40
2018-03-30T15:40:53.934Z,48.80
2018-03-30T15:43:24.212Z,49.10
2018-03-30T15:45:54.806Z,49.30
2018-03-30T15:48:25.577Z,49.80
2018-03-30T15:50:55.662Z,49.20
2018-03-30T15:53:23.433Z,48.80
2018-03-30T15:55:53.750Z,49.30
2018-03-30T15:58:25.175Z,49.10
2018-03-30T16:00:55.753Z,49.60
2018-03-30T16:03:28.302Z,49.10
2018-03-30T16:08:29.156Z,49.90
2018-03-30T16:11:00.259Z,50.20
2018-03-30T16:13:31.032Z,50.70
2018-03-30T16:16:01.835Z,50.80
2018-03-30T16:18:43.333Z,51.40
2018-03-30T16:21:11.904Z,51.70
2018-03-30T16:23:39.934Z,52.00
2018-03-30T16:26:08.030Z,52.00
2018-03-30T16:28:37.189Z,52.60
2018-03-30T16:31:05.823Z,53.10
2018-03-30T16:36:08.815Z,54.20
2018-03-30T16:38:37.212Z,54.70
2018-03-30T16:41:05.319Z,55.00
2018-03-30T16:43:34.345Z,55.20
2018-03-30T16:46:02.171Z,54.50
2018-03-30T16:48:30.927Z,53.00
2018-03-30T16:50:58.745Z,51.10
2018-03-30T16:53:26.899Z,50.50
2018-03-30T16:58:25.241Z,51.10
2018-03-30T17:00:56.993Z,50.00
2018-03-30T17:05:59.692Z,50.20
2018-03-30T17:08:27.913Z,51.20
2018-03-30T17:11:02.200Z,52.70
2018-03-30T17:15:59.381Z,55.20
2018-03-30T17:18:30.197Z,55.30
2018-03-30T17:20:58.031Z,55.70
2018-03-30T17:23:28.294Z,56.30
2018-03-30T17:25:57.710Z,57.00
2018-03-30T17:28:25.554Z,57.20
2018-03-30T17:30:53.388Z,57.50
2018-03-30T17:46:42.741Z,58.30
2018-03-30T17:49:12.055Z,58.50
2018-03-30T17:51:40.670Z,59.40
2018-03-30T17:54:08.665Z,61.60
2018-03-30T17:56:37.368Z,61.70
2018-03-30T17:59:06.206Z,63.10
2018-03-30T18:01:34.498Z,64.40
2018-03-30T18:04:02.290Z,64.00
2018-03-30T18:06:32.283Z,64.10
2018-03-30T18:09:00.116Z,64.40
2018-03-30T18:11:27.800Z,65.80
2018-03-30T18:13:55.806Z,66.00
2018-03-30T18:18:53.822Z,67.20
2018-03-30T18:21:23.357Z,67.10
2018-03-30T18:23:51.874Z,66.90
2018-03-30T18:26:20.473Z,68.00
2018-03-30T18:28:48.529Z,68.00
2018-03-30T18:31:17.077Z,67.90
2018-03-30T18:33:48.607Z,68.20
2018-03-30T18:36:17.392Z,68.20
2018-03-30T18:38:45.639Z,68.40
2018-03-30T18:41:14.153Z,68.30
2018-03-30T18:43:42.264Z,68.30
2018-03-30T18:46:10.033Z,68.60
2018-03-30T18:48:38.624Z,69.30
2018-03-30T18:51:07.935Z,68.50
2018-03-30T18:53:37.276Z,68.40
2018-03-30T18:56:05.842Z,69.30
2018-03-30T18:58:33.997Z,69.10
2018-03-30T19:01:04.565Z,69.10
2018-03-30T19:03:32.333Z,69.00
2018-03-30T19:06:00.444Z,69.20
2018-03-30T19:08:28.224Z,69.10
2018-03-30T19:10:57.274Z,68.90
2018-03-30T19:13:25.614Z,68.80
2018-03-30T19:15:53.402Z,69.00
2018-03-30T19:18:22.056Z,69.00
2018-03-30T19:20:49.935Z,70.00
2018-03-30T19:23:17.785Z,70.60
2018-03-30T19:25:45.576Z,70.30
2018-03-30T19:28:17.824Z,70.40
2018-03-30T19:30:45.671Z,70.70
2018-03-30T19:33:13.943Z,71.10
2018-03-30T19:35:42.451Z,71.00
2018-03-30T19:38:10.274Z,70.20
2018-03-30T19:40:38.110Z,71.30
2018-03-30T19:45:38.287Z,71.10
2018-03-30T19:48:07.318Z,71.10
2018-03-30T19:50:36.288Z,71.60
2018-03-30T19:55:33.892Z,71.70
2018-03-30T19:58:02.496Z,71.80
2018-03-30T20:00:35.345Z,72.20
2018-03-30T20:03:03.391Z,72.20
2018-03-30T20:08:19.609Z,72.30
2018-03-30T20:10:49.722Z,72.50
2018-03-30T20:13:18.520Z,73.30
2018-03-30T20:15:47.161Z,72.50
2018-03-30T20:18:35.059Z,73.40
2018-03-30T20:21:02.976Z,71.80
2018-03-30T20:23:31.269Z,71.70
2018-03-30T20:25:59.268Z,72.10
2018-03-30T20:30:57.716Z,71.60
2018-03-30T20:33:25.745Z,71.60
2018-03-30T20:36:07.799Z,71.30
2018-03-30T20:38:36.648Z,70.60
2018-03-30T20:41:04.588Z,71.50
2018-03-30T20:43:33.149Z,71.90
2018-03-30T20:46:03.172Z,72.10
2018-03-30T20:48:32.170Z,72.50
2018-03-30T20:51:14.193Z,74.40
2018-03-30T20:53:42.262Z,73.50
2018-03-30T20:56:10.125Z,73.70
2018-03-30T20:58:37.952Z,74.00
2018-03-30T21:01:11.034Z,74.30
2018-03-30T21:03:39.190Z,75.00
2018-03-30T21:06:07.108Z,73.90
2018-03-30T21:08:35.257Z,74.60
2018-03-30T21:11:04.260Z,74.50
2018-03-30T21:13:32.119Z,74.50
2018-03-30T21:16:00.769Z,75.00
2018-03-30T21:18:29.741Z,74.40
2018-03-30T21:20:57.573Z,74.40
2018-03-30T21:25:55.126Z,74.40
2018-03-30T21:28:23.441Z,74.60
2018-03-30T21:30:52.379Z,74.60
2018-03-30T21:33:24.558Z,74.80
2018-03-30T21:35:52.327Z,75.00
2018-03-30T21:38:20.152Z,75.20
2018-03-30T21:40:48.454Z,75.30
2018-03-30T21:48:17.334Z,76.00
2018-03-30T21:50:45.280Z,75.60
2018-03-30T21:53:13.842Z,77.20
2018-03-30T22:08:55.075Z,75.50
2018-03-30T22:11:23.372Z,75.80
2018-03-30T22:13:52.909Z,76.00
2018-03-30T22:16:22.658Z,76.10
2018-03-30T22:18:50.638Z,76.30
2018-03-30T22:21:20.913Z,76.30
2018-03-30T22:23:52.796Z,76.90
2018-03-30T22:26:21.190Z,76.00
2018-03-30T22:28:49.068Z,75.90
2018-03-30T22:31:17.342Z,76.00
2018-03-30T22:33:45.616Z,76.10
2018-03-30T22:36:13.864Z,76.10
2018-03-30T22:38:42.137Z,76.10
2018-03-30T22:41:10.362Z,76.20
2018-03-30T22:43:38.287Z,76.20
2018-03-30T22:46:06.869Z,76.20
2018-03-30T22:48:35.299Z,76.30
2018-03-30T22:51:03.311Z,76.50
2018-03-30T22:53:31.128Z,76.60
2018-03-30T22:55:59.445Z,76.60
2018-03-30T22:58:27.354Z,76.80
2018-03-30T23:00:55.249Z,76.70
2018-03-30T23:03:23.468Z,76.70
2018-03-30T23:05:52.744Z,76.80
2018-03-30T23:08:22.234Z,77.10
2018-03-30T23:10:51.166Z,77.90
2018-03-30T23:13:21.990Z,77.50
2018-03-30T23:15:49.872Z,77.70
2018-03-30T23:18:18.237Z,78.00
2018-03-30T23:20:47.267Z,78.20
2018-03-30T23:23:15.161Z,78.50
2018-03-30T23:25:43.483Z,77.90
2018-03-30T23:28:12.081Z,77.60
2018-03-30T23:30:41.168Z,77.50
2018-03-30T23:33:09.377Z,77.60
2018-03-30T23:35:38.369Z,77.80
2018-03-30T23:38:07.422Z,78.10
2018-03-30T23:40:37.649Z,78.40
2018-03-30T23:43:05.520Z,78.40
2018-03-30T23:45:34.185Z,78.30
2018-03-30T23:50:35.993Z,78.50
2018-03-30T23:53:03.943Z,77.80
2018-03-30T23:55:32.653Z,77.50
2018-03-30T23:58:00.576Z,77.20
